createdAt,value
2023-03-12T00:01:18.089Z,5.13
2023-03-12T00:05:22.539Z,6.07
2023-03-12T00:09:25.192Z,5.63
2023-03-12T00:13:27.885Z,6.77
2023-03-12T00:17:31.040Z,6.60
2023-03-12T00:21:35.114Z,5.60
2023-03-12T00:25:38.059Z,5.47
2023-03-12T00:29:40.931Z,5.00
2023-03-12T00:33:43.615Z,5.67
2023-03-12T00:37:47.826Z,6.13
2023-03-12T00:41:50.509Z,5.53
2023-03-12T00:45:53.180Z,6.07
2023-03-12T00:49:56.163Z,7.47
2023-03-12T00:54:00.181Z,6.43
2023-03-12T00:58:02.957Z,5.77
2023-03-12T01:02:06.074Z,5.17
2023-03-12T01:06:08.806Z,6.93
2023-03-12T01:10:16.100Z,5.53
2023-03-12T01:14:18.849Z,5.53
2023-03-12T01:18:21.527Z,7.33
2023-03-12T01:22:24.485Z,6.17
2023-03-12T01:26:28.672Z,6.50
2023-03-12T01:30:31.914Z,6.13
2023-03-12T01:34:35.570Z,6.73
2023-03-12T01:38:38.250Z,6.07
2023-03-12T01:42:52.419Z,6.57
2023-03-12T01:46:55.062Z,5.50
2023-03-12T01:50:57.704Z,6.53
2023-03-12T01:55:04.595Z,5.53
2023-03-12T01:59:12.904Z,5.83
2023-03-12T02:03:16.564Z,5.47
2023-03-12T02:07:19.470Z,6.43
2023-03-12T02:11:22.418Z,8.40
2023-03-12T02:15:27.738Z,7.13
2023-03-12T02:19:36.924Z,6.83
2023-03-12T02:23:42.730Z,7.37
2023-03-12T02:27:47.499Z,8.70
2023-03-12T02:31:54.308Z,8.20
2023-03-12T02:35:57.669Z,7.63
2023-03-12T02:40:05.803Z,9.27
2023-03-12T02:44:11.715Z,7.13
2023-03-12T02:48:14.372Z,7.23
2023-03-12T02:52:17.016Z,8.23
2023-03-12T02:56:19.700Z,8.27
2023-03-12T03:00:27.213Z,8.33
2023-03-12T03:04:32.280Z,6.83
2023-03-12T03:08:35.276Z,7.50
2023-03-12T03:12:38.428Z,8.83
2023-03-12T03:16:42.980Z,8.77
2023-03-12T03:20:45.667Z,9.77
2023-03-12T03:24:48.707Z,8.20
2023-03-12T03:28:51.594Z,9.20
2023-03-12T03:32:55.627Z,8.30
2023-03-12T03:36:58.314Z,8.80
2023-03-12T03:41:01.229Z,9.67
2023-03-12T03:45:04.118Z,7.83
2023-03-12T03:49:08.676Z,10.23
2023-03-12T03:53:12.562Z,8.40
2023-03-12T03:57:15.249Z,9.07
2023-03-12T04:01:18.143Z,10.23
2023-03-12T04:05:22.259Z,10.57
2023-03-12T04:09:24.918Z,10.67
2023-03-12T04:13:27.575Z,8.40
2023-03-12T04:17:30.227Z,7.93
2023-03-12T04:21:34.724Z,7.80
2023-03-12T04:25:37.937Z,9.00
2023-03-12T04:29:42.267Z,8.07
2023-03-12T04:33:44.914Z,6.83
2023-03-12T04:37:49.017Z,8.13
2023-03-12T04:41:52.766Z,7.50
2023-03-12T04:45:55.450Z,8.30
2023-03-12T04:49:58.368Z,6.87
2023-03-12T04:54:02.424Z,9.73
2023-03-12T04:58:05.159Z,8.47
2023-03-12T05:02:08.055Z,7.57
2023-03-12T05:06:10.725Z,7.20
2023-03-12T05:10:14.780Z,9.50
2023-03-12T05:14:17.697Z,7.83
2023-03-12T05:18:21.347Z,9.30
2023-03-12T05:22:24.156Z,7.20
2023-03-12T05:26:31.407Z,7.80
2023-03-12T05:30:34.337Z,6.50
2023-03-12T05:34:36.987Z,6.47
2023-03-12T05:38:40.346Z,7.37
2023-03-12T05:42:44.341Z,6.07
2023-03-12T05:46:47.008Z,6.07
2023-03-12T05:50:49.930Z,6.57
2023-03-12T05:54:53.558Z,8.57
2023-03-12T05:58:58.049Z,9.20
2023-03-12T06:03:00.942Z,7.37
2023-03-12T06:07:03.673Z,8.00
2023-03-12T06:11:06.407Z,6.20
2023-03-12T06:15:11.945Z,10.20
2023-03-12T06:19:15.017Z,7.50
2023-03-12T06:23:19.196Z,8.53
2023-03-12T06:27:23.742Z,9.13
2023-03-12T06:31:28.039Z,8.80
2023-03-12T06:35:30.882Z,9.23
2023-03-12T06:39:34.062Z,8.27
2023-03-12T06:43:37.853Z,9.27
2023-03-12T06:47:41.917Z,8.43
2023-03-12T06:51:46.104Z,9.57
2023-03-12T06:55:51.139Z,9.20
2023-03-12T06:59:56.160Z,9.60
2023-03-12T07:04:00.163Z,10.17
2023-03-12T07:08:02.904Z,9.73
2023-03-12T07:12:06.220Z,7.70
2023-03-12T07:16:09.335Z,6.83
2023-03-12T07:20:14.416Z,8.53
2023-03-12T07:24:17.061Z,8.07
2023-03-12T07:28:20.183Z,7.00
2023-03-12T07:32:23.156Z,6.03
2023-03-12T07:36:29.731Z,5.73
2023-03-12T07:40:33.070Z,5.33
2023-03-12T07:44:37.784Z,7.40
2023-03-12T07:48:43.644Z,7.50
2023-03-12T07:52:48.229Z,5.77
2023-03-12T07:56:51.412Z,8.27
2023-03-12T08:00:56.301Z,7.37
2023-03-12T08:04:59.000Z,6.33
2023-03-12T08:09:03.441Z,5.83
2023-03-12T08:13:06.380Z,8.27
2023-03-12T08:17:09.316Z,7.63
2023-03-12T08:21:12.724Z,6.17
2023-03-12T08:25:20.978Z,5.97
2023-03-12T08:29:25.063Z,7.07
2023-03-12T08:33:28.983Z,8.03
2023-03-12T08:37:31.769Z,6.13
2023-03-12T08:41:35.776Z,4.50
2023-03-12T08:45:38.804Z,5.37
2023-03-12T08:49:41.773Z,5.20
2023-03-12T08:53:45.070Z,6.47
2023-03-12T08:57:49.218Z,4.90
2023-03-12T09:01:52.222Z,4.80
2023-03-12T09:06:04.938Z,4.60
2023-03-12T09:10:08.831Z,5.07
2023-03-12T09:14:57.452Z,5.63
2023-03-12T09:18:40.042Z,5.03
2023-03-12T09:22:42.907Z,4.93
2023-03-12T09:26:45.565Z,5.73
2023-03-12T09:30:49.621Z,4.07
2023-03-12T09:34:52.276Z,5.93
2023-03-12T09:38:55.313Z,5.60
2023-03-12T09:43:00.724Z,4.93
2023-03-12T09:47:06.890Z,3.80
2023-03-12T09:51:15.968Z,3.83
2023-03-12T09:55:21.393Z,6.40
2023-03-12T09:59:24.691Z,5.43
2023-03-12T10:03:46.754Z,6.73
2023-03-12T10:07:53.278Z,5.17
2023-03-12T10:12:00.302Z,3.90
2023-03-12T10:16:14.520Z,5.87
2023-03-12T10:20:51.049Z,5.20
2023-03-12T10:24:59.307Z,4.67
2023-03-12T10:29:05.641Z,7.27
2023-03-12T10:33:12.750Z,4.83
2023-03-12T10:37:19.409Z,4.40
2023-03-12T10:41:23.893Z,6.33
2023-03-12T10:45:32.209Z,5.53
2023-03-12T10:49:36.533Z,5.13
2023-03-12T10:53:44.623Z,5.90
2023-03-12T10:57:48.505Z,4.67
2023-03-12T11:01:53.676Z,7.43
2023-03-12T11:05:57.546Z,4.33
2023-03-12T11:10:21.193Z,4.47
2023-03-12T11:14:28.576Z,7.77
2023-03-12T11:18:36.005Z,6.23
2023-03-12T11:22:38.738Z,4.60
2023-03-12T11:26:49.834Z,6.83
2023-03-12T11:30:58.620Z,4.50
2023-03-12T11:35:01.983Z,5.63
2023-03-12T11:39:08.443Z,5.87
2023-03-12T11:43:41.984Z,5.27
2023-03-12T11:47:54.295Z,4.70
2023-03-12T11:52:03.332Z,5.40
2023-03-12T11:56:13.997Z,4.70
2023-03-12T12:00:20.675Z,5.87
2023-03-12T12:04:44.994Z,4.43
2023-03-12T12:09:08.594Z,5.23
2023-03-12T12:13:16.055Z,5.73
2023-03-12T12:17:29.113Z,6.37
2023-03-12T12:21:39.808Z,6.40
2023-03-12T12:25:53.649Z,4.90
2023-03-12T12:30:07.635Z,5.60
2023-03-12T12:34:42.312Z,6.00
2023-03-12T12:38:47.719Z,5.47
2023-03-12T12:43:25.858Z,4.70
2023-03-12T12:47:35.702Z,5.20
2023-03-12T12:51:42.220Z,7.07
2023-03-12T12:55:53.424Z,6.03
2023-03-12T13:00:12.312Z,5.60
2023-03-12T13:04:18.899Z,7.50
2023-03-12T13:08:38.244Z,7.83
2023-03-12T13:12:44.860Z,6.33
2023-03-12T13:16:48.502Z,7.20
2023-03-12T13:21:14.390Z,6.37
2023-03-12T13:25:27.244Z,5.97
2023-03-12T13:29:41.647Z,6.13
2023-03-12T13:33:46.327Z,7.00
2023-03-12T13:38:07.797Z,6.13
2023-03-12T13:42:45.344Z,8.43
2023-03-12T13:46:51.052Z,8.23
2023-03-12T13:50:57.987Z,7.70
2023-03-12T13:55:02.977Z,6.00
2023-03-12T13:59:09.617Z,6.87
2023-03-12T14:03:16.602Z,6.57
2023-03-12T14:07:33.487Z,5.80
2023-03-12T14:11:42.511Z,7.87
2023-03-12T14:15:50.545Z,5.90
2023-03-12T14:19:58.146Z,5.90
2023-03-12T14:24:01.721Z,7.70
2023-03-12T14:28:11.212Z,6.93
2023-03-12T14:32:17.619Z,4.83
2023-03-12T14:36:21.460Z,3.73
2023-03-12T14:40:26.779Z,4.13
2023-03-12T14:44:30.393Z,5.20
2023-03-12T14:48:36.847Z,5.63
2023-03-12T14:52:39.457Z,4.63
2023-03-12T14:56:45.693Z,5.57
2023-03-12T15:00:57.601Z,6.33
2023-03-12T15:05:02.731Z,5.07
2023-03-12T15:09:07.301Z,4.67
2023-03-12T15:13:12.443Z,6.40
2023-03-12T15:17:18.987Z,6.93
2023-03-12T15:21:23.635Z,7.57
2023-03-12T15:25:28.220Z,6.33
2023-03-12T15:29:31.542Z,6.90
2023-03-12T15:33:34.578Z,6.10
2023-03-12T15:37:40.930Z,3.87
2023-03-12T15:41:45.415Z,6.97
2023-03-12T15:45:48.857Z,6.60
2023-03-12T15:49:53.140Z,6.70
2023-03-12T15:54:05.190Z,5.50
2023-03-12T15:58:25.810Z,5.00
2023-03-12T16:02:39.453Z,5.57
2023-03-12T16:06:43.976Z,6.43
2023-03-12T16:10:49.392Z,6.73
2023-03-12T16:14:53.849Z,5.50
2023-03-12T16:18:58.189Z,5.47
2023-03-12T16:23:00.856Z,8.37
2023-03-12T16:27:07.111Z,6.50
2023-03-12T16:31:13.163Z,6.67
2023-03-12T16:35:17.254Z,6.77
2023-03-12T16:39:20.106Z,8.13
2023-03-12T16:43:25.680Z,8.07
2023-03-12T16:47:29.042Z,8.03
2023-03-12T16:51:31.996Z,6.73
2023-03-12T16:55:48.385Z,9.13
2023-03-12T16:59:52.763Z,7.67
2023-03-12T17:03:55.559Z,12.47
2023-03-12T17:07:59.250Z,7.40
2023-03-12T17:12:02.191Z,8.97
2023-03-12T17:16:08.181Z,9.40
2023-03-12T17:20:14.030Z,12.33
2023-03-12T17:24:17.109Z,9.03
2023-03-12T17:28:22.703Z,7.63
2023-03-12T17:32:31.450Z,8.57
2023-03-12T17:36:37.491Z,10.80
2023-03-12T17:40:41.481Z,9.20
2023-03-12T17:44:44.184Z,7.97
2023-03-12T17:48:48.571Z,9.80
2023-03-12T17:52:52.726Z,9.47
2023-03-12T17:56:56.816Z,11.73
2023-03-12T18:01:00.141Z,11.57
2023-03-12T18:05:04.457Z,9.03
2023-03-12T18:09:07.561Z,11.73
2023-03-12T18:13:11.452Z,9.40
2023-03-12T18:17:14.102Z,10.60
2023-03-12T18:21:18.112Z,7.47
2023-03-12T18:25:20.893Z,7.00
2023-03-12T18:29:23.858Z,7.17
2023-03-12T18:33:26.995Z,12.43
2023-03-12T18:37:32.026Z,9.37
2023-03-12T18:41:36.023Z,10.27
2023-03-12T18:45:42.695Z,10.10
2023-03-12T18:49:45.530Z,8.97
2023-03-12T18:53:49.799Z,9.63
2023-03-12T18:57:52.845Z,9.83
2023-03-12T19:01:55.538Z,10.60
2023-03-12T19:06:03.033Z,10.77
2023-03-12T19:10:08.745Z,11.47
2023-03-12T19:14:12.283Z,8.63
2023-03-12T19:18:14.965Z,9.27
2023-03-12T19:22:17.980Z,8.80
2023-03-12T19:26:22.025Z,9.50
2023-03-12T19:30:27.104Z,11.47
2023-03-12T19:34:30.064Z,11.60
2023-03-12T19:38:35.278Z,9.33
2023-03-12T19:42:39.359Z,15.10
2023-03-12T19:46:43.204Z,11.07
2023-03-12T19:50:45.894Z,13.00
2023-03-12T19:55:01.602Z,10.37
2023-03-12T19:59:08.445Z,12.97
2023-03-12T20:03:11.242Z,11.83
2023-03-12T20:07:14.032Z,10.23
2023-03-12T20:11:16.789Z,13.13
2023-03-12T20:15:21.212Z,11.60
2023-03-12T20:19:23.965Z,10.50
2023-03-12T20:23:26.726Z,11.23
2023-03-12T20:27:29.440Z,10.70
2023-03-12T20:31:34.489Z,9.97
2023-03-12T20:35:37.379Z,13.33
2023-03-12T20:39:41.569Z,11.17
2023-03-12T20:43:45.044Z,12.00
2023-03-12T20:47:49.408Z,9.60
2023-03-12T20:51:52.369Z,9.57
2023-03-12T20:55:55.378Z,10.20
2023-03-12T20:59:58.171Z,11.23
2023-03-12T21:04:02.502Z,13.50
2023-03-12T21:08:05.922Z,10.87
2023-03-12T21:12:08.627Z,11.17
2023-03-12T21:16:12.121Z,9.33
2023-03-12T21:20:19.523Z,9.57
2023-03-12T21:24:22.509Z,8.53
2023-03-12T21:28:25.539Z,8.80
2023-03-12T21:32:28.627Z,9.10
2023-03-12T21:36:34.978Z,7.87
2023-03-12T21:40:37.871Z,7.23
2023-03-12T21:44:40.573Z,8.63
2023-03-12T21:48:44.804Z,8.57
2023-03-12T21:52:49.432Z,10.97
2023-03-12T21:56:52.210Z,10.13
2023-03-12T22:01:03.778Z,7.27
2023-03-12T22:05:07.331Z,6.43
2023-03-12T22:09:11.637Z,7.13
2023-03-12T22:13:14.304Z,9.50
2023-03-12T22:17:17.278Z,7.57
2023-03-12T22:21:21.380Z,7.07
2023-03-12T22:25:25.760Z,7.40
2023-03-12T22:29:28.462Z,9.30
2023-03-12T22:33:31.537Z,9.30
2023-03-12T22:37:34.174Z,9.67
2023-03-12T22:41:38.218Z,7.00
2023-03-12T22:45:40.886Z,7.63
2023-03-12T22:49:43.926Z,8.73
2023-03-12T22:53:46.646Z,8.83
2023-03-12T22:57:53.516Z,7.50
2023-03-12T23:01:56.280Z,8.00
2023-03-12T23:05:59.335Z,10.27
2023-03-12T23:10:02.527Z,6.43
2023-03-12T23:14:06.587Z,10.83
2023-03-12T23:18:09.255Z,7.80
2023-03-12T23:22:13.584Z,8.93
2023-03-12T23:26:17.761Z,8.90
2023-03-12T23:30:22.184Z,7.83
2023-03-12T23:34:24.876Z,8.97
2023-03-12T23:38:28.880Z,7.10
2023-03-12T23:42:31.533Z,11.33
2023-03-12T23:46:35.567Z,7.47
2023-03-12T23:50:38.248Z,8.13
2023-03-12T23:54:40.931Z,7.40
2023-03-12T23:58:44.313Z,7.97
